createdAt,value
2018-04-12T16:02:22.785Z,33.95
2018-04-12T16:03:25.737Z,35.10
2018-04-12T16:06:11.477Z,33.33
2018-04-12T16:08:39.091Z,32.90
2018-04-12T16:11:07.297Z,31.37
2018-04-12T16:13:34.781Z,32.40
2018-04-12T16:16:02.226Z,30.50
2018-04-12T16:18:29.701Z,31.30
2018-04-12T16:20:57.141Z,31.30
2018-04-12T16:23:24.609Z,30.23
2018-04-12T16:25:52.053Z,29.53
2018-04-12T16:28:19.522Z,29.43
2018-04-12T16:30:46.965Z,29.67
2018-04-12T16:33:14.483Z,28.87
2018-04-12T16:35:42.687Z,28.60
2018-04-12T16:38:10.150Z,29.63
2018-04-12T16:40:37.929Z,28.63
2018-04-12T16:43:05.373Z,30.07
2018-04-12T16:45:32.860Z,28.57
2018-04-12T16:48:00.293Z,26.60
2018-04-12T16:50:27.747Z,28.53
2018-04-12T16:52:55.208Z,29.83
2018-04-12T16:55:22.686Z,28.17
2018-04-12T16:57:50.131Z,28.40
2018-04-12T17:00:17.606Z,28.03
2018-04-12T17:02:45.046Z,28.70
2018-04-12T17:05:12.531Z,28.83
2018-04-12T17:07:39.982Z,28.20
2018-04-12T17:10:07.512Z,28.80
2018-04-12T17:12:34.937Z,27.40
2018-04-12T17:15:03.183Z,26.00
2018-04-12T17:17:30.617Z,26.00
2018-04-12T17:19:58.688Z,25.50
2018-04-12T17:22:26.154Z,24.37
2018-04-12T17:24:53.602Z,24.43
2018-04-12T17:27:21.045Z,24.80
2018-04-12T17:29:48.486Z,24.80
2018-04-12T17:32:15.999Z,24.80
2018-04-12T17:34:43.549Z,22.30
2018-04-12T17:37:10.994Z,23.80
2018-04-12T17:39:38.471Z,23.73
2018-04-12T17:42:06.029Z,22.73
2018-04-12T17:44:33.583Z,21.57
2018-04-12T17:47:01.026Z,22.17
2018-04-12T17:49:29.334Z,20.60
2018-04-12T17:51:56.785Z,21.13
2018-04-12T17:54:24.234Z,21.57
2018-04-12T17:56:51.685Z,21.37
2018-04-12T17:59:19.128Z,21.03
2018-04-12T18:01:46.593Z,20.83
2018-04-12T18:04:14.035Z,22.73
2018-04-12T18:06:41.485Z,22.73
2018-04-12T18:09:08.977Z,21.90
2018-04-12T18:11:36.558Z,22.43
2018-04-12T18:14:04.801Z,22.37
2018-04-12T18:16:32.271Z,20.37
2018-04-12T18:18:59.738Z,20.60
2018-04-12T18:21:38.844Z,19.33
2018-04-12T18:24:07.041Z,19.17
2018-04-12T18:26:34.575Z,17.50
2018-04-12T18:29:02.435Z,18.20
2018-04-12T18:31:29.923Z,17.83
2018-04-12T18:33:57.370Z,18.20
2018-04-12T18:36:24.816Z,17.83
2018-04-12T18:38:52.257Z,19.10
2018-04-12T18:41:19.753Z,17.87
2018-04-12T18:43:47.197Z,19.07
2018-04-12T18:46:14.809Z,18.50
2018-04-12T18:48:42.219Z,17.37
2018-04-12T18:51:09.669Z,18.60
2018-04-12T18:53:37.105Z,17.97
2018-04-12T18:56:04.565Z,18.67
2018-04-12T18:58:32.038Z,18.53
2018-04-12T19:01:01.319Z,18.10
2018-04-12T19:03:29.513Z,18.60
2018-04-12T19:05:56.981Z,18.20
2018-04-12T19:08:24.686Z,19.40
2018-04-12T19:10:52.130Z,20.17
2018-04-12T19:13:19.606Z,18.67
2018-04-12T19:15:47.042Z,18.77
2018-04-12T19:18:14.664Z,19.67
2018-04-12T19:20:42.135Z,19.10
2018-04-12T19:23:09.569Z,18.63
2018-04-12T19:25:37.049Z,13.87
2018-04-12T19:28:04.527Z,18.63
2018-04-12T19:30:31.982Z,17.87
2018-04-12T19:32:59.537Z,16.77
2018-04-12T19:35:26.990Z,14.77
2018-04-12T19:37:54.461Z,15.47
2018-04-12T19:40:22.052Z,13.87
2018-04-12T19:42:49.580Z,15.63
2018-04-12T19:45:17.021Z,15.57
2018-04-12T19:47:44.470Z,16.20
2018-04-12T19:50:14.042Z,16.53
2018-04-12T19:52:41.469Z,16.87
2018-04-12T19:55:10.430Z,16.57
2018-04-12T19:57:37.905Z,16.80
2018-04-12T20:00:05.366Z,16.50
2018-04-12T20:02:32.922Z,16.70
2018-04-12T20:05:00.383Z,16.57
2018-04-12T20:07:27.819Z,17.43
2018-04-12T20:09:55.271Z,17.23
2018-04-12T20:12:22.723Z,17.00
2018-04-12T20:14:50.158Z,17.07
2018-04-12T20:17:17.605Z,15.93
2018-04-12T20:19:45.855Z,17.03
2018-04-12T20:22:13.405Z,17.20
2018-04-12T20:24:40.867Z,17.53
2018-04-12T20:27:08.322Z,16.63
2018-04-12T20:29:35.762Z,17.43
2018-04-12T20:32:03.230Z,16.80
2018-04-12T20:34:30.698Z,16.27
2018-04-12T20:36:58.150Z,16.93
2018-04-12T20:39:25.589Z,16.10
2018-04-12T20:41:53.070Z,14.77
2018-04-12T20:44:20.513Z,15.70
2018-04-12T20:46:48.052Z,15.93
2018-04-12T20:49:15.443Z,15.50
2018-04-12T20:51:43.002Z,16.50
2018-04-12T20:54:10.441Z,16.73
2018-04-12T20:56:37.910Z,16.77
2018-04-12T20:59:05.361Z,17.07
2018-04-12T21:01:32.803Z,17.53
2018-04-12T21:04:00.246Z,17.73
2018-04-12T21:06:27.745Z,17.43
2018-04-12T21:08:55.194Z,16.60
2018-04-12T21:11:22.650Z,17.37
2018-04-12T21:13:50.099Z,16.57
2018-04-12T21:16:17.578Z,18.77
2018-04-12T21:18:45.018Z,17.43
2018-04-12T21:21:12.501Z,16.50
2018-04-12T21:23:39.946Z,16.53
2018-04-12T21:26:07.389Z,15.93
2018-04-12T21:28:34.941Z,16.80
2018-04-12T21:31:02.394Z,15.83
2018-04-12T21:33:29.890Z,15.93
2018-04-12T21:35:57.444Z,16.57
2018-04-12T21:38:25.014Z,17.03
2018-04-12T21:40:52.569Z,18.00
2018-04-12T21:43:20.022Z,18.10
2018-04-12T21:45:47.465Z,17.27
2018-04-12T21:48:14.947Z,16.57
2018-04-12T21:50:44.998Z,18.07
2018-04-12T21:53:12.433Z,17.63
2018-04-12T21:55:39.885Z,18.30
2018-04-12T21:58:08.233Z,16.77
2018-04-12T22:00:35.679Z,17.07
2018-04-12T22:03:03.555Z,17.80
2018-04-12T22:05:30.985Z,17.73
2018-04-12T22:07:59.233Z,17.83
2018-04-12T22:10:27.139Z,17.57
2018-04-12T22:12:54.638Z,14.67
2018-04-12T22:15:22.079Z,13.30
2018-04-12T22:17:49.524Z,1.90
2018-04-12T22:20:17.010Z,1.60
2018-04-12T22:22:44.456Z,1.93
2018-04-12T22:25:11.890Z,3.73
2018-04-12T22:27:39.330Z,5.23
2018-04-12T22:30:07.534Z,6.10
2018-04-12T22:32:34.988Z,3.10
2018-04-12T22:35:02.566Z,1.83
2018-04-12T22:37:30.043Z,1.30
2018-04-12T22:39:57.601Z,0.90
2018-04-12T22:42:25.145Z,1.20
2018-04-12T22:44:52.583Z,1.17
2018-04-12T22:47:20.038Z,1.20
2018-04-12T22:49:47.479Z,1.07
2018-04-12T22:52:15.689Z,1.20
2018-04-12T22:54:43.125Z,1.20
2018-04-12T22:57:10.571Z,1.30
2018-04-12T22:59:38.000Z,1.30
2018-04-12T23:02:05.537Z,1.40
2018-04-12T23:04:32.990Z,1.80
2018-04-12T23:07:00.455Z,1.47
2018-04-12T23:09:27.885Z,1.70
2018-04-12T23:11:55.365Z,2.40
2018-04-12T23:14:22.797Z,2.60
2018-04-12T23:16:50.237Z,2.47
2018-04-12T23:19:17.734Z,2.40
2018-04-12T23:21:45.706Z,2.20
2018-04-12T23:24:13.142Z,2.13
2018-04-12T23:26:43.342Z,2.37
2018-04-12T23:29:10.773Z,2.33
2018-04-12T23:31:38.218Z,2.20
2018-04-12T23:34:05.757Z,2.63
2018-04-12T23:36:33.199Z,2.33
2018-04-12T23:39:01.173Z,2.47
2018-04-12T23:41:28.609Z,2.57
2018-04-12T23:43:56.716Z,2.53
2018-04-12T23:46:24.159Z,2.77
2018-04-12T23:48:51.601Z,3.03
2018-04-12T23:51:19.035Z,2.80
2018-04-12T23:53:47.883Z,2.23
2018-04-12T23:56:15.338Z,2.80
2018-04-12T23:58:42.788Z,2.60
